63842 station(s) have been heard in the last 24 hours.

<< 909 910 911 912 913 914 915 >>
  Name/Id Latest heard Comment/Other Map
Symbol EA2CSG 1778132045 Map
Symbol ZL1TZP-10 1778132039 144.675MHz Winlink Packet Gateway Map
Symbol SQ6OS-D 1778132036 70cm MMDVM Voice (DMR) 438.02500MHz +0.0000MHz, APRS for DMRGateway Map
Symbol JR2BEF-9 1778132035 Map
Symbol ZL1HOG-10 1778132034 144.675MHz Winlink Packet Gateway Map
Symbol SR6PCB 1778132032 145.575 -0.6 T103,5 Przemiennik brzeski Map
Symbol BI3OVY-7 1778132031 https://aprsdroid.org Map
Symbol ZL1GSC-10 1778132029 144.675MHz Winlink VARA FM Wide Gateway Map
Symbol N0AMY-7 1778132026 Map
Symbol SP6PCB 1778132025 Brzeski Klub cznoci 145.525/SR6PCB Map
Symbol ZL1AOX-10 1778132023 144.675MHz Winlink VARA FM Wide Gateway Map
Symbol JP3TME-9 1778132022 Map
Symbol F4KLJ-2 1778132021 RSC Map
Symbol DG6DXG-9 1778132019 `145.500MHz DG6DXG Gregor on Tour. Map
Symbol ZL1AFZ-10 1778132018 144.575MHz Winlink Packet Gateway Map
Symbol PY3JRT-10 1778132013 Rede Sul APRS - Rede Tche VHF/UHF++ Porto Alegre Map
Symbol KE8DCJ 1778132010 Map
Symbol JA1RBY-13 1778132010 WX Ebina {UIV32N} Map
Symbol JA9GYE 1778132005 Map
Symbol DG1OBD-2 1778132004 ASt Map
Symbol DG2MMB-6 1778132001 DG2MMB-RDZ rdzTTGOsonde-dev20251120 Map
Symbol R6HABA-5 1778132001 145.450MHz Hi all! t.me/aprs_russia Map
Symbol WY2C-10 1778131998 145.070MHz Winlink VARA FM Gateway Map
Symbol BG1TDF-15 1778131995 (BG9JYT) Map
Symbol SP7BLD-9 1778131994 7.73V Map
Symbol 442.075IA 1778131994 T136 R40m Map
Symbol WX8OH-10 1778131993 Map
Symbol F4IRT-2 1778131993 Map
Symbol ZS6JCO-4 1778131990 V5.2 ZS4SRK VaalTracker Map
Symbol OH1FOL-3 1778131985 RTL-SDR RX IGate 145.825 Map
Symbol OH1FOL-1 1778131984 RTL-SDR RX IGate 144.8 Map
Symbol WX4PCA-10 1778131983 145.710MHz Winlink Packet Gateway Map
Symbol 147.180x 1778131981 147.180MHz T91.5 - W8KTM Map
Symbol OK5AM-13 1778131979 0b00092WX-Mini Meteo Map
Symbol DB9CR-20 1778131976 Map
Symbol DL6HBS-9 1778131975 73 via ISS de Stefan JO54cj Map
Symbol WX4MC-10 1778131973 144.990MHz Winlink VARA FM Wide Gateway Map
Symbol EA2URD-2 1778131971 Map
Symbol JH8CLC-5 1778131968 https://aprsdroid.org Map
Symbol HS5XCL-11 1778131967 [SAT:09] Indy Tracker [noTNC] NapaSamphan 144.575MHz Map
Symbol WIDE2 1778131965 Budapest (ASL: 442m) - APRS IGate & Digi - HAMNET: 2362MHz,5MHz BW,MIMO Map
Symbol WX4BCA-10 1778131963 145.550MHz Winlink VARA FM Wide Gateway Map
Symbol BA4KME-9 1778131962 `_7 Map
Symbol WW7CH-10 1778131953 145.730MHz Winlink VARA FM Wide Gateway Map
Symbol LU1PAY-7 1778131951 "temp":12.71C "humidity":29% Map
Symbol OE5HPE-1 1778131944 test1#OE5HPE/B=100 Map
Symbol TA5ERJ-2 1778131943 Y=29 Sats=9 Spd=24.4km/h 439.425Mhz Map
Symbol XE1IFV-1 1778131936 D C D LA VIRGEN 146.740T88.5 RED INT 145.500T103.5 Map
Symbol KD9LOR-1 1778131935 KD9LOR Map
Symbol F4CYQ-7 1778131933 Map